Date,TemperatureHighF,TemperatureAvgF,TemperatureLowF,DewpointHighF,DewpointAvgF,DewpointLowF,HumidityHigh,HumidityAvg,HumidityLow,PressureMaxIn,PressureMinIn,WindSpeedMaxMPH,WindSpeedAvgMPH,GustSpeedMaxMPH,PrecipitationSumIn
2013-1-1,46,39,34,38,33,25,95,81,57,30.30,30.12,13,5,13,0.00
2013-1-2,50,40,32,31,18,9,90,44,30,30.15,30.00,13,5,13,0.00
2013-1-3,57,43,34,55,23,7,91,50,28,30.15,29.94,17,5,17,0.31
2013-1-4,58,53,48,56,51,46,92,91,88,30.21,30.03,13,2,13,0.16
2013-1-5,51,49,46,49,46,44,93,91,88,30.09,30.00,5,0,5,0.08
2013-1-6,49,49,49,46,46,46,91,91,91,30.12,30.00,0,0,0,0.08
2013-1-7,49,49,49,46,46,46,91,91,91,30.12,30.00,0,0,0,0.16
2013-1-9,49,49,49,46,46,46,91,91,91,30.12,29.83,0,0,0,0.20
2013-1-10,49,49,49,46,46,46,91,91,91,30.06,29.91,0,0,0,0.24
2013-1-11,49,49,49,46,46,46,91,91,91,30.21,30.03,0,0,0,0.08
2013-1-12,49,49,49,46,46,46,91,91,91,30.27,30.18,0,0,0,0.00
2013-1-13,49,49,49,46,46,46,91,91,91,30.36,30.27,0,0,0,0.00
2013-1-14,49,49,49,46,46,46,91,91,91,30.42,30.36,0,0,0,0.00
2013-1-15,49,49,49,46,46,46,91,91,91,30.50,30.42,0,0,0,0.00
2013-1-16,49,49,49,46,46,46,91,91,91,30.48,30.30,0,0,0,0.00
2013-1-17,49,49,49,46,46,46,91,91,91,30.30,30.24,0,0,0,0.00
2013-1-26,49,49,49,46,46,46,91,91,91,30.24,30.24,0,0,0,0.54
2013-2-1,49,49,49,46,46,46,91,91,91,30.24,30.24,0,0,0,0.27
2013-2-25,49,49,49,46,46,46,91,91,91,30.24,30.24,0,0,0,0.27
2013-3-19,49,49,49,46,46,46,91,91,91,30.24,30.21,0,0,0,0.09
2013-3-27,49,49,49,46,46,46,91,91,91,30.24,30.21,0,0,0,0.00
2013-9-29,49,49,49,46,46,46,91,91,91,30.21,30.21,0,0,0,0.00
2013-9-30,49,49,49,46,46,46,91,91,91,30.21,30.21,0,0,0,0.00
2013-10-1,49,49,49,46,46,46,91,91,91,30.21,30.21,0,0,0,0.00
2013-10-2,49,49,49,46,46,46,91,91,91,30.21,30.21,0,0,0,0.00
2013-10-3,49,49,49,46,46,46,91,91,91,30.21,30.21,0,0,0,0.00
2013-10-4,49,49,49,46,46,46,91,91,91,30.21,30.21,0,0,0,0.00